createdAt,value
2023-04-30T00:02:00.318Z,4.60
2023-04-30T00:04:26.923Z,4.20
2023-04-30T00:06:53.709Z,3.90
2023-04-30T00:09:20.283Z,4.10
2023-04-30T00:11:47.410Z,4.35
2023-04-30T00:14:13.890Z,4.47
2023-04-30T00:16:40.450Z,3.97
2023-04-30T00:19:08.334Z,4.28
2023-04-30T00:21:34.832Z,3.93
2023-04-30T00:24:01.514Z,4.22
2023-04-30T00:26:28.367Z,3.97
2023-04-30T00:28:54.890Z,4.28
2023-04-30T00:31:21.490Z,3.92
2023-04-30T00:33:48.075Z,4.17
2023-04-30T00:36:14.683Z,4.32
2023-04-30T00:38:41.150Z,3.80
2023-04-30T00:41:07.688Z,4.60
2023-04-30T00:43:34.470Z,5.18
2023-04-30T00:46:01.061Z,3.83
2023-04-30T00:48:28.055Z,4.20
2023-04-30T00:50:54.530Z,4.32
2023-04-30T00:53:21.391Z,4.07
2023-04-30T00:55:48.435Z,4.22
2023-04-30T00:58:15.262Z,4.30
2023-04-30T01:00:46.902Z,4.53
2023-04-30T01:03:14.262Z,4.40
2023-04-30T01:05:41.010Z,4.63
2023-04-30T01:08:09.050Z,4.55
2023-04-30T01:10:48.795Z,4.20
2023-04-30T01:13:26.599Z,4.25
2023-04-30T01:16:11.848Z,4.22
2023-04-30T01:18:44.245Z,4.25
2023-04-30T01:21:13.065Z,5.13
2023-04-30T01:23:59.631Z,4.73
2023-04-30T01:26:52.888Z,4.80
2023-04-30T01:29:20.524Z,4.30
2023-04-30T01:31:47.152Z,4.10
2023-04-30T01:34:13.765Z,4.68
2023-04-30T01:36:50.606Z,4.77
2023-04-30T01:39:50.701Z,4.38
2023-04-30T01:42:22.973Z,3.95
2023-04-30T01:45:13.138Z,4.55
2023-04-30T01:47:46.222Z,4.45
2023-04-30T01:50:37.373Z,4.37
2023-04-30T01:53:09.534Z,4.05
2023-04-30T01:55:41.318Z,3.90
2023-04-30T01:58:12.402Z,4.25
2023-04-30T02:00:39.015Z,4.68
2023-04-30T02:03:06.082Z,4.83
2023-04-30T02:05:32.748Z,4.43
2023-04-30T02:08:00.136Z,4.40
2023-04-30T02:10:27.240Z,4.63
2023-04-30T02:12:54.055Z,4.60
2023-04-30T02:15:20.676Z,5.00
2023-04-30T02:17:47.315Z,4.35
2023-04-30T02:20:14.358Z,5.10
2023-04-30T02:22:41.158Z,4.57
2023-04-30T02:25:08.067Z,4.50
2023-04-30T02:27:34.860Z,4.17
2023-04-30T02:30:01.513Z,4.60
2023-04-30T02:32:28.088Z,5.22
2023-04-30T02:34:54.700Z,4.38
2023-04-30T02:37:21.321Z,4.80
2023-04-30T02:39:47.977Z,4.33
2023-04-30T02:42:14.591Z,5.00
2023-04-30T02:44:41.170Z,5.03
2023-04-30T02:47:07.703Z,4.95
2023-04-30T02:49:34.242Z,4.45
2023-04-30T02:52:00.955Z,4.53
2023-04-30T02:54:27.684Z,4.45
2023-04-30T02:56:54.268Z,4.32
2023-04-30T02:59:20.916Z,5.00
2023-04-30T03:01:47.624Z,4.63
2023-04-30T03:04:14.267Z,4.80
2023-04-30T03:06:40.999Z,4.90
2023-04-30T03:09:08.202Z,4.15
2023-04-30T03:11:37.457Z,4.32
2023-04-30T03:14:04.979Z,5.00
2023-04-30T03:16:31.663Z,4.63
2023-04-30T03:18:58.513Z,4.63
2023-04-30T03:21:25.273Z,4.90
2023-04-30T03:23:52.553Z,4.40
2023-04-30T03:26:19.524Z,5.03
2023-04-30T03:28:46.032Z,4.90
2023-04-30T03:31:12.664Z,4.68
2023-04-30T03:33:39.253Z,4.65
2023-04-30T03:36:06.442Z,5.05
2023-04-30T03:38:32.989Z,4.70
2023-04-30T03:40:59.562Z,4.40
2023-04-30T03:43:26.089Z,4.88
2023-04-30T03:45:52.765Z,4.85
2023-04-30T03:48:19.706Z,4.78
2023-04-30T03:50:46.533Z,4.82
2023-04-30T03:53:13.180Z,5.00
2023-04-30T03:55:39.732Z,5.00
2023-04-30T03:58:06.327Z,4.60
2023-04-30T04:00:33.194Z,4.70
2023-04-30T04:02:59.980Z,5.40
2023-04-30T04:05:29.263Z,4.63
2023-04-30T04:07:55.866Z,5.20
2023-04-30T04:10:22.434Z,4.57
2023-04-30T04:12:48.998Z,5.05
2023-04-30T04:15:15.534Z,4.63
2023-04-30T04:17:42.156Z,4.63
2023-04-30T04:20:10.139Z,4.68
2023-04-30T04:22:38.659Z,5.10
2023-04-30T04:25:05.591Z,4.82
2023-04-30T04:27:34.332Z,5.40
2023-04-30T04:30:03.787Z,4.90
2023-04-30T04:32:32.667Z,4.85
2023-04-30T04:34:59.209Z,4.80
2023-04-30T04:37:25.829Z,5.10
2023-04-30T04:39:52.684Z,5.38
2023-04-30T04:42:20.472Z,5.37
2023-04-30T04:44:47.586Z,5.40
2023-04-30T04:47:14.128Z,4.60
2023-04-30T04:49:41.300Z,5.00
2023-04-30T04:52:08.623Z,5.93
2023-04-30T04:54:35.230Z,6.00
2023-04-30T04:57:03.068Z,6.22
2023-04-30T04:59:29.949Z,6.57
2023-04-30T05:01:56.662Z,6.00
2023-04-30T05:04:23.310Z,5.70
2023-04-30T05:06:49.849Z,5.80
2023-04-30T05:09:16.331Z,5.60
2023-04-30T05:11:43.887Z,6.15
2023-04-30T05:14:10.438Z,5.88
2023-04-30T05:16:37.034Z,6.25
2023-04-30T05:19:03.640Z,5.40
2023-04-30T05:21:32.023Z,5.57
2023-04-30T05:23:58.545Z,5.47
2023-04-30T05:26:25.084Z,5.32
2023-04-30T05:28:52.525Z,5.43
2023-04-30T05:31:20.920Z,4.80
2023-04-30T05:33:47.836Z,5.38
2023-04-30T05:36:14.760Z,5.90
2023-04-30T05:38:41.979Z,5.63
2023-04-30T05:41:11.814Z,5.50
2023-04-30T05:43:38.350Z,5.70
2023-04-30T05:46:04.935Z,5.80
2023-04-30T05:48:31.540Z,4.93
2023-04-30T05:50:58.051Z,5.22
2023-04-30T05:53:24.728Z,5.38
2023-04-30T05:55:51.487Z,5.67
2023-04-30T05:58:17.997Z,6.25
2023-04-30T06:00:44.533Z,5.55
2023-04-30T06:03:11.125Z,6.05
2023-04-30T06:05:37.758Z,5.80
2023-04-30T06:08:04.366Z,4.83
2023-04-30T06:10:31.044Z,4.63
2023-04-30T06:12:57.614Z,6.00
2023-04-30T06:15:24.135Z,5.72
2023-04-30T06:17:50.761Z,5.97
2023-04-30T06:20:17.353Z,5.27
2023-04-30T06:22:43.866Z,5.70
2023-04-30T06:25:10.609Z,5.88
2023-04-30T06:27:37.204Z,5.22
2023-04-30T06:30:03.937Z,5.25
2023-04-30T06:32:30.958Z,5.20
2023-04-30T06:34:58.887Z,5.70
2023-04-30T06:37:25.399Z,4.82
2023-04-30T06:39:52.005Z,4.72
2023-04-30T06:42:18.681Z,4.55
2023-04-30T06:44:46.032Z,4.40
2023-04-30T06:47:12.682Z,3.63
2023-04-30T06:49:39.217Z,3.97
2023-04-30T06:52:05.784Z,3.58
2023-04-30T06:54:32.295Z,3.55
2023-04-30T06:56:58.819Z,3.63
2023-04-30T06:59:25.428Z,3.67
2023-04-30T07:01:52.232Z,3.67
2023-04-30T07:04:20.052Z,3.47
2023-04-30T07:06:46.683Z,3.65
2023-04-30T07:09:15.605Z,3.23
2023-04-30T07:11:42.745Z,3.15
2023-04-30T07:14:09.220Z,3.42
2023-04-30T07:16:35.750Z,3.10
2023-04-30T07:19:02.352Z,2.78
2023-04-30T07:21:28.850Z,2.97
2023-04-30T07:23:55.407Z,3.70
2023-04-30T07:26:24.885Z,3.33
2023-04-30T07:28:51.452Z,3.55
2023-04-30T07:31:19.163Z,3.13
2023-04-30T07:33:45.764Z,3.53
2023-04-30T07:36:12.246Z,3.30
2023-04-30T07:38:38.746Z,3.63
2023-04-30T07:41:06.292Z,3.40
2023-04-30T07:43:32.806Z,3.00
2023-04-30T07:45:59.636Z,3.77
2023-04-30T07:48:26.327Z,3.10
2023-04-30T07:50:53.133Z,3.55
2023-04-30T07:53:19.799Z,3.60
2023-04-30T07:55:46.549Z,3.80
2023-04-30T07:58:13.111Z,3.80
2023-04-30T08:00:39.652Z,3.83
2023-04-30T08:03:06.365Z,3.03
2023-04-30T08:05:32.966Z,2.90
2023-04-30T08:07:59.629Z,3.33
2023-04-30T08:10:26.375Z,3.10
2023-04-30T08:12:53.117Z,3.10
2023-04-30T08:15:21.902Z,3.40
2023-04-30T08:17:51.860Z,2.70
2023-04-30T08:20:18.814Z,2.67
2023-04-30T08:22:47.012Z,2.73
2023-04-30T08:25:13.539Z,3.22
2023-04-30T08:27:40.233Z,2.80
2023-04-30T08:30:07.692Z,2.60
2023-04-30T08:32:37.876Z,2.83
2023-04-30T08:35:05.631Z,3.30
2023-04-30T08:37:32.438Z,3.42
2023-04-30T08:39:58.998Z,2.50
2023-04-30T08:42:31.024Z,2.28
2023-04-30T08:45:01.517Z,2.17
2023-04-30T08:47:28.386Z,2.20
2023-04-30T08:49:55.217Z,2.70
2023-04-30T08:52:22.377Z,2.72
2023-04-30T08:54:51.013Z,2.10
2023-04-30T08:57:18.809Z,1.77
2023-04-30T08:59:47.322Z,1.80
2023-04-30T09:02:14.232Z,2.53
2023-04-30T09:04:40.982Z,2.17
2023-04-30T09:07:09.619Z,2.17
2023-04-30T09:09:39.523Z,2.13
2023-04-30T09:12:19.792Z,2.53
2023-04-30T09:14:59.947Z,2.08
2023-04-30T09:17:26.509Z,2.53
2023-04-30T09:19:53.883Z,2.53
2023-04-30T09:22:24.331Z,1.88
2023-04-30T09:24:51.807Z,2.00
2023-04-30T09:27:20.271Z,1.65
2023-04-30T09:29:46.851Z,1.67
2023-04-30T09:32:14.325Z,2.08
2023-04-30T09:34:42.850Z,2.20
2023-04-30T09:37:10.966Z,1.90
2023-04-30T09:39:47.961Z,1.73
2023-04-30T09:42:14.585Z,1.73
2023-04-30T09:44:41.883Z,1.90
2023-04-30T09:47:16.724Z,2.10
2023-04-30T09:49:44.697Z,2.17
2023-04-30T09:52:12.349Z,1.85
2023-04-30T09:54:38.898Z,2.40
2023-04-30T09:57:09.989Z,1.60
2023-04-30T09:59:38.071Z,2.33
2023-04-30T10:02:06.641Z,2.33
2023-04-30T10:04:36.602Z,1.70
2023-04-30T10:07:10.442Z,1.92
2023-04-30T10:09:44.983Z,2.30
2023-04-30T10:12:15.817Z,2.15
2023-04-30T10:14:56.025Z,2.23
2023-04-30T10:17:27.101Z,1.88
2023-04-30T10:19:58.789Z,2.03
2023-04-30T10:22:26.085Z,1.55
2023-04-30T10:24:52.708Z,2.05
2023-04-30T10:27:19.282Z,2.40
2023-04-30T10:29:46.344Z,1.80
2023-04-30T10:32:13.654Z,1.77
2023-04-30T10:34:51.534Z,1.95
2023-04-30T10:37:43.701Z,1.58
2023-04-30T10:40:10.513Z,2.03
2023-04-30T10:42:37.172Z,2.47
2023-04-30T10:45:04.018Z,2.00
2023-04-30T10:47:31.112Z,1.80
2023-04-30T10:50:10.598Z,1.42
2023-04-30T10:52:38.716Z,1.83
2023-04-30T10:55:07.475Z,1.98
2023-04-30T10:57:42.434Z,2.10
2023-04-30T11:00:09.542Z,2.13
2023-04-30T11:02:44.132Z,1.70
2023-04-30T11:05:15.002Z,2.13
2023-04-30T11:07:52.067Z,1.63
2023-04-30T11:10:23.606Z,1.63
2023-04-30T11:12:52.364Z,2.00
2023-04-30T11:15:22.599Z,1.70
2023-04-30T11:17:49.959Z,1.50
2023-04-30T11:20:22.898Z,1.65
2023-04-30T11:23:08.293Z,1.85
2023-04-30T11:25:48.181Z,1.90
2023-04-30T11:28:25.118Z,1.60
2023-04-30T11:30:56.842Z,1.80
2023-04-30T11:33:24.599Z,1.50
2023-04-30T11:35:55.731Z,1.95
2023-04-30T11:38:26.700Z,2.00
2023-04-30T11:40:54.888Z,1.60
2023-04-30T11:43:22.963Z,2.63
2023-04-30T11:46:12.310Z,2.17
2023-04-30T11:48:40.935Z,1.98
2023-04-30T11:51:17.957Z,2.00
2023-04-30T11:53:47.010Z,2.10
2023-04-30T11:56:13.533Z,2.23
2023-04-30T11:58:40.301Z,2.00
2023-04-30T12:01:08.113Z,2.15
2023-04-30T12:03:41.650Z,2.20
2023-04-30T12:06:10.606Z,2.45
2023-04-30T12:08:37.773Z,2.10
2023-04-30T12:11:07.767Z,2.30
2023-04-30T12:13:34.450Z,2.17
2023-04-30T12:16:01.785Z,1.67
2023-04-30T12:18:28.348Z,1.65
2023-04-30T12:20:55.064Z,1.70
2023-04-30T12:23:21.686Z,1.90
2023-04-30T12:25:48.292Z,1.80
2023-04-30T12:28:15.194Z,2.00
2023-04-30T12:30:43.570Z,1.63
2023-04-30T12:33:11.258Z,2.57
2023-04-30T12:35:42.975Z,1.70
2023-04-30T12:38:09.667Z,1.92
2023-04-30T12:40:36.954Z,1.80
2023-04-30T12:43:08.469Z,1.55
2023-04-30T12:45:52.773Z,1.53
2023-04-30T12:48:21.628Z,1.50
2023-04-30T12:50:51.360Z,1.65
2023-04-30T12:53:17.921Z,1.50
2023-04-30T12:55:44.482Z,1.40
2023-04-30T12:58:13.796Z,1.60
2023-04-30T13:00:43.573Z,1.30
2023-04-30T13:03:10.259Z,1.33
2023-04-30T13:05:36.953Z,1.30
2023-04-30T13:08:05.912Z,1.73
2023-04-30T13:10:33.119Z,1.60
2023-04-30T13:12:59.997Z,1.30
2023-04-30T13:15:26.841Z,1.35
2023-04-30T13:17:54.195Z,1.15
2023-04-30T13:20:20.941Z,1.30
2023-04-30T13:22:47.436Z,1.20
2023-04-30T13:25:13.949Z,1.20
2023-04-30T13:27:40.611Z,1.02
2023-04-30T13:30:07.760Z,0.98
2023-04-30T13:32:34.476Z,1.10
2023-04-30T13:35:01.201Z,1.10
2023-04-30T13:37:27.675Z,1.08
2023-04-30T13:39:54.381Z,1.40
2023-04-30T13:42:21.328Z,1.13
2023-04-30T13:44:49.886Z,1.00
2023-04-30T13:47:16.543Z,1.40
2023-04-30T13:49:43.106Z,0.75
2023-04-30T13:52:09.686Z,1.02
2023-04-30T13:54:37.517Z,2.10
2023-04-30T13:57:04.280Z,1.17
2023-04-30T13:59:31.762Z,1.40
2023-04-30T14:01:58.330Z,1.10
2023-04-30T14:04:24.894Z,0.90
2023-04-30T14:06:52.792Z,0.90
2023-04-30T14:09:19.376Z,0.90
2023-04-30T14:11:45.900Z,0.90
2023-04-30T14:14:12.513Z,1.00
2023-04-30T14:16:39.257Z,1.10
2023-04-30T14:19:06.158Z,0.80
2023-04-30T14:21:34.228Z,0.90
2023-04-30T14:24:00.765Z,1.07
2023-04-30T14:26:27.380Z,0.95
2023-04-30T14:28:53.931Z,1.20
2023-04-30T14:31:20.725Z,1.08
2023-04-30T14:33:47.264Z,0.90
2023-04-30T14:36:13.751Z,1.33
2023-04-30T14:38:40.433Z,0.77
2023-04-30T14:41:07.069Z,0.93
2023-04-30T14:43:33.604Z,0.85
2023-04-30T14:46:00.345Z,0.70
2023-04-30T14:48:26.929Z,0.50
2023-04-30T14:50:53.461Z,0.70
2023-04-30T14:53:19.973Z,0.52
2023-04-30T14:55:46.449Z,0.50
2023-04-30T14:58:12.976Z,0.73
2023-04-30T15:00:39.492Z,0.57
2023-04-30T15:03:06.284Z,0.60
2023-04-30T15:05:32.978Z,0.43
2023-04-30T15:07:59.511Z,0.50
2023-04-30T15:10:26.274Z,0.63
2023-04-30T15:12:53.777Z,0.50
2023-04-30T15:15:22.521Z,0.77
2023-04-30T15:17:49.331Z,0.63
2023-04-30T15:20:15.861Z,0.70
2023-04-30T15:22:42.719Z,0.63
2023-04-30T15:25:09.555Z,0.60
2023-04-30T15:27:36.842Z,0.77
2023-04-30T15:30:03.935Z,0.80
2023-04-30T15:32:30.591Z,0.40
2023-04-30T15:34:57.045Z,0.75
2023-04-30T15:37:23.568Z,0.60
2023-04-30T15:39:50.123Z,0.75
2023-04-30T15:42:16.632Z,0.60
2023-04-30T15:44:43.103Z,0.80
2023-04-30T15:47:09.753Z,0.80
2023-04-30T15:49:36.257Z,1.17
2023-04-30T15:52:02.766Z,0.77
2023-04-30T15:54:29.318Z,0.65
2023-04-30T15:56:55.832Z,0.50
2023-04-30T15:59:22.364Z,0.88
2023-04-30T16:01:48.956Z,0.70
2023-04-30T16:04:15.543Z,0.52
2023-04-30T16:06:42.301Z,0.60
2023-04-30T16:09:09.146Z,0.77
2023-04-30T16:11:36.110Z,0.50
2023-04-30T16:14:03.034Z,0.50
2023-04-30T16:16:29.769Z,0.43
2023-04-30T16:18:56.386Z,0.60
2023-04-30T16:21:23.771Z,0.55
2023-04-30T16:23:53.156Z,0.40
2023-04-30T16:26:19.730Z,0.60
2023-04-30T16:28:47.221Z,0.50
2023-04-30T16:31:15.566Z,0.90
2023-04-30T16:33:42.621Z,0.55
2023-04-30T16:36:09.918Z,0.98
2023-04-30T16:38:36.989Z,0.80
2023-04-30T16:41:03.640Z,0.77
2023-04-30T16:43:30.252Z,0.70
2023-04-30T16:45:56.964Z,0.75
2023-04-30T16:48:23.533Z,0.82
2023-04-30T16:50:50.319Z,0.80
2023-04-30T16:53:16.909Z,0.80
2023-04-30T16:55:43.709Z,0.50
2023-04-30T16:58:10.202Z,0.85
2023-04-30T17:00:36.746Z,0.70
2023-04-30T17:03:04.581Z,0.70
2023-04-30T17:05:31.307Z,0.60
2023-04-30T17:07:57.885Z,0.60
2023-04-30T17:10:25.525Z,0.50
2023-04-30T17:12:52.309Z,0.70
2023-04-30T17:15:19.986Z,0.90
2023-04-30T17:17:46.552Z,0.80
2023-04-30T17:20:13.214Z,0.70
2023-04-30T17:22:40.166Z,0.50
2023-04-30T17:25:06.914Z,1.10
2023-04-30T17:27:33.425Z,1.10
2023-04-30T17:29:59.934Z,0.90
2023-04-30T17:32:26.985Z,0.80
2023-04-30T17:34:53.820Z,0.68
2023-04-30T17:37:20.376Z,0.90
2023-04-30T17:39:46.952Z,1.00
2023-04-30T17:42:13.543Z,0.70
2023-04-30T17:44:40.174Z,0.63
2023-04-30T17:47:07.257Z,0.57
2023-04-30T17:49:33.749Z,0.50
2023-04-30T17:52:01.174Z,0.47
2023-04-30T17:54:30.978Z,0.40
2023-04-30T17:56:59.068Z,0.50
2023-04-30T17:59:27.821Z,0.52
2023-04-30T18:01:54.385Z,0.50
2023-04-30T18:04:21.187Z,0.60
2023-04-30T18:06:48.147Z,0.50
2023-04-30T18:09:16.033Z,0.50
2023-04-30T18:11:43.053Z,0.50
2023-04-30T18:14:09.748Z,0.47
2023-04-30T18:16:36.635Z,0.70
2023-04-30T18:19:03.458Z,0.50
2023-04-30T18:21:29.950Z,0.50
2023-04-30T18:23:56.738Z,0.50
2023-04-30T18:26:24.671Z,0.63
2023-04-30T18:28:55.585Z,0.40
2023-04-30T18:31:22.121Z,0.47
2023-04-30T18:33:48.635Z,0.73
2023-04-30T18:36:15.134Z,1.70
2023-04-30T18:38:41.714Z,1.13
2023-04-30T18:41:08.369Z,3.20
2023-04-30T18:43:37.072Z,3.30
2023-04-30T18:46:05.758Z,2.50
2023-04-30T18:48:32.474Z,1.10
2023-04-30T18:50:59.067Z,1.30
2023-04-30T18:53:25.631Z,1.23
2023-04-30T18:55:52.449Z,2.85
2023-04-30T18:58:18.933Z,3.90
2023-04-30T19:00:45.671Z,4.80
2023-04-30T19:03:12.477Z,13.77
2023-04-30T19:05:39.023Z,13.87
2023-04-30T19:08:05.607Z,8.15
2023-04-30T19:10:33.770Z,5.60
2023-04-30T19:13:00.515Z,4.50
2023-04-30T19:15:29.600Z,3.92
2023-04-30T19:17:56.337Z,3.20
2023-04-30T19:20:22.902Z,3.08
2023-04-30T19:22:50.470Z,2.35
2023-04-30T19:25:17.910Z,3.83
2023-04-30T19:27:44.731Z,4.20
2023-04-30T19:30:11.876Z,4.47
2023-04-30T19:32:38.387Z,3.33
2023-04-30T19:35:05.292Z,2.40
2023-04-30T19:37:31.876Z,2.67
2023-04-30T19:39:58.456Z,2.00
2023-04-30T19:42:24.983Z,1.90
2023-04-30T19:44:52.926Z,1.70
2023-04-30T19:47:19.656Z,1.35
2023-04-30T19:49:47.290Z,1.27
2023-04-30T19:52:14.364Z,1.45
2023-04-30T19:54:45.217Z,1.53
2023-04-30T19:57:11.716Z,1.50
2023-04-30T19:59:38.255Z,1.40
2023-04-30T20:02:05.144Z,1.63
2023-04-30T20:04:31.761Z,1.20
2023-04-30T20:06:58.712Z,1.50
2023-04-30T20:09:25.935Z,1.20
2023-04-30T20:11:52.490Z,1.35
2023-04-30T20:14:19.092Z,1.13
2023-04-30T20:16:46.435Z,1.40
2023-04-30T20:19:13.913Z,1.43
2023-04-30T20:21:40.550Z,1.40
2023-04-30T20:24:07.068Z,1.10
2023-04-30T20:26:34.132Z,1.20
2023-04-30T20:29:00.984Z,1.40
2023-04-30T20:31:31.180Z,1.30
2023-04-30T20:33:57.886Z,1.30
2023-04-30T20:36:24.679Z,1.50
2023-04-30T20:38:54.199Z,1.20
2023-04-30T20:41:21.757Z,1.45
2023-04-30T20:43:48.311Z,1.40
2023-04-30T20:46:15.352Z,1.60
2023-04-30T20:48:41.893Z,1.15
2023-04-30T20:51:08.859Z,1.38
2023-04-30T20:53:35.898Z,1.35
2023-04-30T20:56:02.488Z,1.70
2023-04-30T20:58:29.181Z,1.30
2023-04-30T21:00:56.675Z,1.50
2023-04-30T21:03:23.559Z,1.92
2023-04-30T21:05:50.214Z,1.55
2023-04-30T21:08:16.733Z,1.50
2023-04-30T21:10:43.250Z,1.30
2023-04-30T21:13:11.325Z,1.63
2023-04-30T21:15:39.798Z,1.50
2023-04-30T21:18:06.505Z,1.48
2023-04-30T21:20:33.201Z,1.50
2023-04-30T21:22:59.676Z,1.40
2023-04-30T21:25:26.666Z,1.80
2023-04-30T21:27:53.300Z,1.77
2023-04-30T21:30:22.350Z,1.60
2023-04-30T21:32:51.109Z,1.47
2023-04-30T21:35:18.044Z,1.48
2023-04-30T21:37:44.642Z,1.60
2023-04-30T21:40:11.534Z,1.40
2023-04-30T21:42:38.055Z,1.65
2023-04-30T21:45:04.934Z,1.57
2023-04-30T21:47:31.702Z,1.63
2023-04-30T21:49:58.955Z,1.65
2023-04-30T21:52:25.791Z,1.55
2023-04-30T21:54:52.403Z,1.45
2023-04-30T21:57:19.456Z,1.83
2023-04-30T21:59:46.035Z,1.98
2023-04-30T22:02:22.786Z,1.77
2023-04-30T22:04:50.167Z,1.60
2023-04-30T22:07:17.073Z,1.80
2023-04-30T22:09:44.752Z,1.87
2023-04-30T22:12:11.453Z,1.60
2023-04-30T22:14:39.230Z,1.63
2023-04-30T22:17:06.046Z,1.50
2023-04-30T22:19:32.547Z,1.70
2023-04-30T22:21:59.079Z,1.27
2023-04-30T22:24:25.560Z,1.85
2023-04-30T22:26:52.084Z,1.77
2023-04-30T22:29:19.632Z,1.42
2023-04-30T22:31:46.346Z,1.80
2023-04-30T22:34:15.297Z,1.90
2023-04-30T22:36:42.206Z,1.88
2023-04-30T22:39:08.727Z,1.60
2023-04-30T22:41:35.719Z,2.10
2023-04-30T22:44:02.264Z,1.50
2023-04-30T22:46:30.239Z,1.90
2023-04-30T22:48:57.314Z,1.98
2023-04-30T22:51:23.863Z,1.90
2023-04-30T22:53:50.493Z,1.70
2023-04-30T22:56:17.006Z,1.88
2023-04-30T22:58:43.569Z,1.80
2023-04-30T23:01:10.144Z,1.90
2023-04-30T23:03:38.472Z,1.85
2023-04-30T23:06:05.134Z,2.25
2023-04-30T23:08:32.245Z,2.05
2023-04-30T23:10:58.982Z,2.00
2023-04-30T23:13:25.479Z,2.08
2023-04-30T23:15:52.185Z,2.08
2023-04-30T23:18:19.667Z,1.88
2023-04-30T23:20:47.351Z,2.55
2023-04-30T23:23:13.824Z,2.20
2023-04-30T23:25:40.344Z,1.65
2023-04-30T23:28:06.858Z,1.60
2023-04-30T23:30:33.455Z,1.85
2023-04-30T23:32:59.951Z,1.85
2023-04-30T23:35:26.752Z,1.70
2023-04-30T23:37:53.258Z,2.00
2023-04-30T23:40:20.004Z,1.92
2023-04-30T23:42:46.568Z,1.90
2023-04-30T23:45:13.080Z,2.22
2023-04-30T23:47:39.579Z,1.97
2023-04-30T23:50:06.746Z,1.90
2023-04-30T23:52:33.322Z,1.77
2023-04-30T23:54:59.888Z,1.70
2023-04-30T23:57:28.024Z,2.53
2023-04-30T23:59:55.099Z,2.17
